createdAt,value
2022-09-03T00:02:19.979Z,2.00
2022-09-03T00:04:51.164Z,2.00
2022-09-03T00:07:21.402Z,2.00
2022-09-03T00:09:50.309Z,2.67
2022-09-03T00:12:24.822Z,2.00
2022-09-03T00:14:54.659Z,2.00
2022-09-03T00:17:23.544Z,2.00
2022-09-03T00:19:54.172Z,1.50
2022-09-03T00:22:22.869Z,3.00
2022-09-03T00:24:50.478Z,0.00
2022-09-03T00:27:21.359Z,2.00
2022-09-03T00:29:50.758Z,2.00
2022-09-03T00:32:19.646Z,2.00
2022-09-03T00:34:48.684Z,2.50
2022-09-03T00:37:16.550Z,2.25
2022-09-03T00:39:44.109Z,2.00
2022-09-03T00:42:23.600Z,1.00
2022-09-03T00:44:59.410Z,2.25
2022-09-03T00:47:29.524Z,2.00
2022-09-03T00:50:04.022Z,2.50
2022-09-03T00:52:45.957Z,2.00
2022-09-03T00:55:17.876Z,2.00
2022-09-03T00:57:52.536Z,2.50
2022-09-03T01:00:20.737Z,2.00
2022-09-03T01:02:53.862Z,1.75
2022-09-03T01:05:29.014Z,2.00
2022-09-03T01:08:02.295Z,1.50
2022-09-03T01:10:32.237Z,2.00
2022-09-03T01:13:03.220Z,2.00
2022-09-03T01:15:32.275Z,1.67
2022-09-03T01:18:12.670Z,2.00
2022-09-03T01:20:47.293Z,2.00
2022-09-03T01:23:35.937Z,1.50
2022-09-03T01:26:08.183Z,1.50
2022-09-03T01:28:43.347Z,2.00
2022-09-03T01:31:17.650Z,1.00
2022-09-03T01:33:47.439Z,2.00
2022-09-03T01:36:17.962Z,2.00
2022-09-03T01:38:47.770Z,2.00
2022-09-03T01:41:36.922Z,2.00
2022-09-03T01:44:09.773Z,2.00
2022-09-03T01:46:39.352Z,2.00
2022-09-03T01:49:12.080Z,2.00
2022-09-03T01:51:41.372Z,2.00
2022-09-03T01:54:36.821Z,2.00
2022-09-03T01:57:34.745Z,2.00
2022-09-03T02:00:06.566Z,2.00
2022-09-03T02:02:41.054Z,2.00
2022-09-03T02:05:10.008Z,1.75
2022-09-03T02:07:38.425Z,2.00
2022-09-03T02:10:07.560Z,2.00
2022-09-03T02:12:36.181Z,2.00
2022-09-03T02:15:07.033Z,2.00
2022-09-03T02:17:34.568Z,2.00
2022-09-03T02:20:03.454Z,2.00
2022-09-03T02:22:30.883Z,2.00
2022-09-03T02:24:58.334Z,1.00
2022-09-03T02:27:25.802Z,1.50
2022-09-03T02:29:53.285Z,2.00
2022-09-03T02:32:22.015Z,2.00
2022-09-03T02:34:49.502Z,2.00
2022-09-03T02:37:18.213Z,2.00
2022-09-03T02:39:45.731Z,1.00
2022-09-03T02:42:14.048Z,2.00
2022-09-03T02:44:42.787Z,1.50
2022-09-03T02:47:10.772Z,1.75
2022-09-03T02:49:39.492Z,2.00
2022-09-03T02:52:09.455Z,1.50
2022-09-03T02:54:39.677Z,2.00
2022-09-03T02:57:07.972Z,2.00
2022-09-03T02:59:35.410Z,2.00
2022-09-03T03:02:02.993Z,1.00
2022-09-03T03:04:30.730Z,2.00
2022-09-03T03:06:59.638Z,1.75
2022-09-03T03:09:27.075Z,1.00
2022-09-03T03:11:55.414Z,1.25
2022-09-03T03:14:22.930Z,2.00
2022-09-03T03:16:50.489Z,2.00
2022-09-03T03:19:18.022Z,2.00
2022-09-03T03:21:45.556Z,1.00
2022-09-03T03:24:14.327Z,2.00
2022-09-03T03:26:41.798Z,2.00
2022-09-03T03:29:33.143Z,1.75
2022-09-03T03:32:13.023Z,2.00
2022-09-03T03:34:50.922Z,3.00
2022-09-03T03:37:28.149Z,2.00
2022-09-03T03:40:10.494Z,2.00
2022-09-03T03:42:37.973Z,2.00
2022-09-03T03:45:20.532Z,2.00
2022-09-03T03:47:47.966Z,2.00
2022-09-03T03:50:22.136Z,3.00
2022-09-03T03:52:52.449Z,1.25
2022-09-03T03:55:23.880Z,2.75
2022-09-03T03:58:03.854Z,2.00
2022-09-03T04:00:38.361Z,2.25
2022-09-03T04:03:05.844Z,3.00
2022-09-03T04:05:46.174Z,3.00
2022-09-03T04:08:16.061Z,2.50
2022-09-03T04:10:44.798Z,2.00
2022-09-03T04:13:14.211Z,2.67
2022-09-03T04:15:51.854Z,3.00
2022-09-03T04:18:19.345Z,3.00
2022-09-03T04:20:49.390Z,3.00
2022-09-03T04:23:25.980Z,3.00
2022-09-03T04:26:02.412Z,2.50
2022-09-03T04:28:34.190Z,3.00
2022-09-03T04:31:18.734Z,3.00
2022-09-03T04:33:46.273Z,4.00
2022-09-03T04:36:20.280Z,3.75
2022-09-03T04:39:02.696Z,2.00
2022-09-03T04:41:33.336Z,2.75
2022-09-03T04:44:08.694Z,2.75
2022-09-03T04:46:42.263Z,4.50
2022-09-03T04:49:10.646Z,5.00
2022-09-03T04:51:41.131Z,5.00
2022-09-03T04:54:10.987Z,4.50
2022-09-03T04:57:15.605Z,6.00
2022-09-03T05:00:22.082Z,4.50
2022-09-03T05:02:58.264Z,5.50
2022-09-03T05:05:25.720Z,6.75
2022-09-03T05:08:07.149Z,3.00
2022-09-03T05:11:04.034Z,5.50
2022-09-03T05:13:40.013Z,1.00
2022-09-03T05:16:10.266Z,3.00
2022-09-03T05:18:45.003Z,2.75
2022-09-03T05:21:19.264Z,6.00
2022-09-03T05:23:50.650Z,5.25
2022-09-03T05:26:23.805Z,6.25
2022-09-03T05:28:58.063Z,8.00
2022-09-03T05:31:31.933Z,9.75
2022-09-03T05:34:00.548Z,8.25
2022-09-03T05:36:38.597Z,5.00
2022-09-03T05:42:45.213Z,10.50
2022-09-03T05:45:14.060Z,12.00
2022-09-03T05:47:50.401Z,14.50
2022-09-03T05:50:17.973Z,12.00
2022-09-03T05:52:48.479Z,14.00
2022-09-03T05:55:25.043Z,9.50
2022-09-03T05:57:52.714Z,8.50
2022-09-03T06:00:26.769Z,23.50
2022-09-03T06:02:54.477Z,21.00
2022-09-03T06:05:22.040Z,20.00
2022-09-03T06:07:49.592Z,20.00
2022-09-03T06:10:26.140Z,22.00
2022-09-03T06:13:12.972Z,20.00
2022-09-03T06:15:41.742Z,20.00
2022-09-03T06:18:16.408Z,20.00
2022-09-03T06:21:04.483Z,21.50
2022-09-03T06:23:35.422Z,19.75
2022-09-03T06:26:05.653Z,16.00
2022-09-03T06:28:34.352Z,14.25
2022-09-03T06:31:06.543Z,12.25
2022-09-03T06:33:37.778Z,12.25
2022-09-03T06:36:16.610Z,8.75
2022-09-03T06:38:50.398Z,11.50
2022-09-03T06:41:27.345Z,13.00
2022-09-03T06:43:59.029Z,9.25
2022-09-03T06:46:30.616Z,10.00
2022-09-03T06:48:58.128Z,10.25
2022-09-03T06:51:26.476Z,9.75
2022-09-03T06:53:54.852Z,10.25
2022-09-03T06:56:28.666Z,9.00
2022-09-03T06:59:05.009Z,10.25
2022-09-03T07:01:34.159Z,8.00
2022-09-03T07:04:02.321Z,7.25
2022-09-03T07:06:33.458Z,8.00
2022-09-03T07:09:00.958Z,8.00
2022-09-03T07:11:33.358Z,6.25
2022-09-03T07:14:24.445Z,7.25
2022-09-03T07:16:55.472Z,8.25
2022-09-03T07:19:26.040Z,6.00
2022-09-03T07:21:55.820Z,6.00
2022-09-03T07:24:39.245Z,7.00
2022-09-03T07:27:32.253Z,7.00
2022-09-03T07:29:57.655Z,4.00
2022-09-03T07:32:27.667Z,5.00
2022-09-03T07:34:58.075Z,5.00
2022-09-03T07:37:25.568Z,5.50
2022-09-03T07:40:23.048Z,5.00
2022-09-03T07:42:55.277Z,5.00
2022-09-03T07:48:25.296Z,3.25
2022-09-03T07:50:53.599Z,3.00
2022-09-03T07:53:24.861Z,2.75
2022-09-03T07:55:52.322Z,4.00
2022-09-03T07:58:25.850Z,5.00
2022-09-03T08:00:56.046Z,3.25
2022-09-03T08:03:37.141Z,3.00
2022-09-03T08:06:19.709Z,3.00
2022-09-03T08:08:50.216Z,3.00
2022-09-03T08:11:19.738Z,4.00
2022-09-03T08:13:48.493Z,3.00
2022-09-03T08:16:16.998Z,2.75
2022-09-03T08:18:47.532Z,3.25
2022-09-03T08:21:17.003Z,3.00
2022-09-03T08:23:45.279Z,3.25
2022-09-03T08:26:12.929Z,3.00
2022-09-03T08:28:40.650Z,2.25
2022-09-03T08:31:10.073Z,3.25
2022-09-03T08:33:42.470Z,3.00
2022-09-03T08:36:30.233Z,2.00
2022-09-03T08:39:07.407Z,2.50
2022-09-03T08:41:40.099Z,2.00
2022-09-03T08:44:38.595Z,3.00
2022-09-03T08:47:32.650Z,2.25
2022-09-03T08:50:05.880Z,2.75
2022-09-03T08:52:44.895Z,2.00
2022-09-03T08:55:24.049Z,1.50
2022-09-03T08:58:00.207Z,3.00
2022-09-03T09:00:37.942Z,2.00
2022-09-03T09:03:31.135Z,2.75
2022-09-03T09:06:20.767Z,2.67
2022-09-03T09:08:56.419Z,2.00
2022-09-03T09:11:36.577Z,0.67
2022-09-03T09:14:07.908Z,1.33
2022-09-03T09:16:48.361Z,1.00
2022-09-03T09:19:43.363Z,2.00
2022-09-03T09:22:34.509Z,2.00
2022-09-03T09:25:05.279Z,2.33
2022-09-03T09:27:32.936Z,2.00
2022-09-03T09:30:14.888Z,2.00
2022-09-03T09:32:42.346Z,2.33
2022-09-03T09:35:20.199Z,2.00
2022-09-03T09:37:48.941Z,2.00
2022-09-03T09:40:40.465Z,2.67
2022-09-03T09:43:16.170Z,2.00
2022-09-03T09:45:44.580Z,1.75
2022-09-03T09:48:18.949Z,2.25
2022-09-03T09:50:46.363Z,2.00
2022-09-03T09:53:17.848Z,1.67
2022-09-03T09:55:53.611Z,3.00
2022-09-03T09:58:23.497Z,2.00
2022-09-03T10:01:03.051Z,2.00
2022-09-03T10:03:34.993Z,2.00
2022-09-03T10:06:25.623Z,2.00
2022-09-03T10:08:54.312Z,3.00
2022-09-03T10:11:25.373Z,2.00
2022-09-03T10:13:53.535Z,1.75
2022-09-03T10:16:23.621Z,2.00
2022-09-03T10:18:54.004Z,2.00
2022-09-03T10:21:23.849Z,2.75
2022-09-03T10:23:53.622Z,2.00
2022-09-03T10:26:32.272Z,3.00
2022-09-03T10:29:01.017Z,2.00
2022-09-03T10:31:36.580Z,2.00
2022-09-03T10:34:06.227Z,2.00
2022-09-03T10:36:35.787Z,2.00
2022-09-03T10:39:05.607Z,2.00
2022-09-03T10:41:42.059Z,1.00
2022-09-03T10:44:20.613Z,2.00
2022-09-03T10:46:53.985Z,1.25
2022-09-03T10:49:35.504Z,2.25
2022-09-03T10:52:05.036Z,2.00
2022-09-03T10:54:48.138Z,2.00
2022-09-03T10:57:22.599Z,2.00
2022-09-03T10:59:58.934Z,3.00
2022-09-03T11:02:41.123Z,2.00
2022-09-03T11:05:10.041Z,1.75
2022-09-03T11:07:38.607Z,2.00
2022-09-03T11:10:12.281Z,2.00
2022-09-03T11:12:43.284Z,2.50
2022-09-03T11:15:12.590Z,2.00
2022-09-03T11:17:41.671Z,1.00
2022-09-03T11:20:12.682Z,2.00
2022-09-03T11:22:40.160Z,2.00
2022-09-03T11:25:08.949Z,1.75
2022-09-03T11:27:44.436Z,2.00
2022-09-03T11:30:14.634Z,2.00
2022-09-03T11:32:48.553Z,2.00
2022-09-03T11:35:26.388Z,2.00
2022-09-03T11:37:55.098Z,2.00
2022-09-03T11:40:26.823Z,2.00
2022-09-03T11:42:54.246Z,2.00
2022-09-03T11:45:25.418Z,2.00
2022-09-03T11:47:53.922Z,1.00
2022-09-03T11:50:23.310Z,2.00
2022-09-03T11:52:51.798Z,2.00
2022-09-03T11:55:26.632Z,1.00
2022-09-03T11:57:54.419Z,2.00
2022-09-03T12:00:24.982Z,2.00
2022-09-03T12:02:58.998Z,1.00
2022-09-03T12:05:30.444Z,2.00
2022-09-03T12:08:13.750Z,3.00
2022-09-03T12:10:45.879Z,2.00
2022-09-03T12:13:19.414Z,1.00
2022-09-03T12:16:08.323Z,1.00
2022-09-03T12:18:36.201Z,2.00
2022-09-03T12:21:04.551Z,1.50
2022-09-03T12:23:33.340Z,2.00
2022-09-03T12:26:01.633Z,1.25
2022-09-03T12:28:29.340Z,1.00
2022-09-03T12:31:09.668Z,1.50
2022-09-03T12:33:41.709Z,2.00
2022-09-03T12:36:10.083Z,2.50
2022-09-03T12:39:00.792Z,2.00
2022-09-03T12:41:27.927Z,1.25
2022-09-03T12:43:56.626Z,2.00
2022-09-03T12:46:33.256Z,1.50
2022-09-03T12:51:56.862Z,2.00
2022-09-03T12:54:24.943Z,2.00
2022-09-03T12:56:54.762Z,1.50
2022-09-03T12:59:22.278Z,1.00
2022-09-03T13:01:52.320Z,3.00
2022-09-03T13:04:20.445Z,1.75
2022-09-03T13:06:50.763Z,2.00
2022-09-03T13:09:21.121Z,2.00
2022-09-03T13:11:49.184Z,2.00
2022-09-03T13:14:17.553Z,2.00
2022-09-03T13:16:56.918Z,2.00
2022-09-03T13:19:27.567Z,2.00
2022-09-03T13:21:57.576Z,3.00
2022-09-03T13:24:35.424Z,1.50
2022-09-03T13:27:07.468Z,2.33
2022-09-03T13:29:40.577Z,2.00
2022-09-03T13:32:16.988Z,1.67
2022-09-03T13:34:48.212Z,2.00
2022-09-03T13:37:21.593Z,2.67
2022-09-03T13:39:54.385Z,2.33
2022-09-03T13:42:24.799Z,2.00
2022-09-03T13:44:54.315Z,2.00
2022-09-03T13:47:28.784Z,1.00
2022-09-03T13:50:16.682Z,2.00
2022-09-03T13:52:46.075Z,3.00
2022-09-03T13:55:16.196Z,2.00
2022-09-03T13:57:47.697Z,2.00
2022-09-03T14:00:23.618Z,2.25
2022-09-03T14:02:54.033Z,1.00
2022-09-03T14:05:27.596Z,2.00
2022-09-03T14:08:03.046Z,2.00
2022-09-03T14:10:35.142Z,2.00
2022-09-03T14:13:07.780Z,2.00
2022-09-03T14:15:36.769Z,2.00
2022-09-03T14:18:11.530Z,2.25
2022-09-03T14:20:42.254Z,2.75
2022-09-03T14:23:11.957Z,3.00
2022-09-03T14:25:42.805Z,3.00
2022-09-03T14:28:14.566Z,2.00
2022-09-03T14:30:44.525Z,3.00
2022-09-03T14:33:15.673Z,2.00
2022-09-03T14:35:54.532Z,2.00
2022-09-03T14:38:53.762Z,2.00
2022-09-03T14:41:29.588Z,2.75
2022-09-03T14:44:10.497Z,2.00
2022-09-03T14:46:44.235Z,3.00
2022-09-03T14:49:26.879Z,3.00
2022-09-03T14:52:03.402Z,3.00
2022-09-03T14:54:52.012Z,2.00
2022-09-03T14:57:28.919Z,4.00
2022-09-03T15:00:03.727Z,4.00
2022-09-03T15:02:52.028Z,2.00
2022-09-03T15:05:37.654Z,2.00
2022-09-03T15:08:09.675Z,3.00
2022-09-03T15:10:38.390Z,3.00
2022-09-03T15:13:10.493Z,3.00
2022-09-03T15:15:52.297Z,2.00
2022-09-03T15:18:26.164Z,3.00
2022-09-03T15:20:55.453Z,3.50
2022-09-03T15:23:31.101Z,3.00
2022-09-03T15:26:10.821Z,3.00
2022-09-03T15:28:42.316Z,3.00
2022-09-03T15:31:12.124Z,3.00
2022-09-03T15:33:44.281Z,3.00
2022-09-03T15:36:17.694Z,2.00
2022-09-03T15:38:48.512Z,3.00
2022-09-03T15:41:22.706Z,2.50
2022-09-03T15:43:50.877Z,3.00
2022-09-03T15:46:34.656Z,3.00
2022-09-03T15:49:03.811Z,4.00
2022-09-03T15:51:35.008Z,3.00
2022-09-03T15:54:08.061Z,3.00
2022-09-03T15:56:36.809Z,3.25
2022-09-03T15:59:07.947Z,3.25
2022-09-03T16:01:41.870Z,4.00
2022-09-03T16:04:13.336Z,3.00
2022-09-03T16:06:55.117Z,3.00
2022-09-03T16:09:37.184Z,3.25
2022-09-03T16:12:11.735Z,3.00
2022-09-03T16:14:41.541Z,3.00
2022-09-03T16:17:10.856Z,3.00
2022-09-03T16:19:41.324Z,3.00
2022-09-03T16:22:15.523Z,3.75
2022-09-03T16:24:45.336Z,4.00
2022-09-03T16:27:16.753Z,4.00
2022-09-03T16:29:44.205Z,3.25
2022-09-03T16:32:17.895Z,3.25
2022-09-03T16:34:51.161Z,4.00
2022-09-03T16:37:23.539Z,5.00
2022-09-03T16:39:56.145Z,3.00
2022-09-03T16:42:27.071Z,3.00
2022-09-03T16:45:05.549Z,4.00
2022-09-03T16:47:38.301Z,4.00
2022-09-03T16:50:12.814Z,4.00
2022-09-03T16:52:45.952Z,4.00
2022-09-03T16:55:19.380Z,4.00
2022-09-03T16:57:57.232Z,4.25
2022-09-03T17:00:24.704Z,4.00
2022-09-03T17:03:26.180Z,3.75
2022-09-03T17:06:02.818Z,4.25
2022-09-03T17:08:34.279Z,4.00
2022-09-03T17:11:08.186Z,4.75
2022-09-03T17:13:55.443Z,4.00
2022-09-03T17:16:29.814Z,4.50
2022-09-03T17:18:59.857Z,5.00
2022-09-03T17:21:38.487Z,4.00
2022-09-03T17:24:37.970Z,5.00
2022-09-03T17:27:15.405Z,5.25
2022-09-03T17:29:52.798Z,6.00
2022-09-03T17:32:27.969Z,3.25
2022-09-03T17:35:01.672Z,5.25
2022-09-03T17:37:32.411Z,5.00
2022-09-03T17:40:22.170Z,4.25
2022-09-03T17:42:52.984Z,6.50
2022-09-03T17:45:24.116Z,5.00
2022-09-03T17:48:05.454Z,6.00
2022-09-03T17:50:36.554Z,5.00
2022-09-03T17:53:07.416Z,5.00
2022-09-03T17:55:37.143Z,5.00
2022-09-03T17:58:09.470Z,4.25
2022-09-03T18:00:38.789Z,5.25
2022-09-03T18:03:08.462Z,5.75
2022-09-03T18:05:44.375Z,6.75
2022-09-03T18:08:15.115Z,6.00
2022-09-03T18:10:45.622Z,6.00
2022-09-03T18:13:15.130Z,5.25
2022-09-03T18:15:49.306Z,5.00
2022-09-03T18:18:21.274Z,6.25
2022-09-03T18:21:23.957Z,6.00
2022-09-03T18:24:17.448Z,5.00
2022-09-03T18:27:05.985Z,6.00
2022-09-03T18:29:54.303Z,6.00
2022-09-03T18:32:39.628Z,7.25
2022-09-03T18:35:26.516Z,6.00
2022-09-03T18:38:11.348Z,6.00
2022-09-03T18:40:58.837Z,6.00
2022-09-03T18:43:49.592Z,7.00
2022-09-03T18:49:44.604Z,6.00
2022-09-03T18:52:32.467Z,6.00
2022-09-03T18:55:22.335Z,6.00
2022-09-03T18:58:14.622Z,6.25
2022-09-03T19:01:04.660Z,9.00
2022-09-03T19:03:58.032Z,14.00
2022-09-03T19:06:46.878Z,12.00
2022-09-03T19:09:41.788Z,10.00
2022-09-03T19:12:31.606Z,8.75
2022-09-03T19:15:18.947Z,8.00
2022-09-03T19:18:17.586Z,8.00
2022-09-03T19:21:04.999Z,8.00
2022-09-03T19:23:52.871Z,9.00
2022-09-03T19:26:44.905Z,9.00
2022-09-03T19:29:34.364Z,9.00
2022-09-03T19:32:19.639Z,15.75
2022-09-03T19:35:15.244Z,7.50
2022-09-03T19:38:05.119Z,8.50
2022-09-03T19:41:00.832Z,10.00
2022-09-03T19:43:48.096Z,10.00
2022-09-03T19:46:37.217Z,11.75
2022-09-03T19:49:27.888Z,14.25
2022-09-03T19:52:17.500Z,12.00
2022-09-03T19:55:02.870Z,12.00
2022-09-03T19:57:47.823Z,12.00
2022-09-03T20:00:33.593Z,13.00
2022-09-03T20:03:18.990Z,13.75
2022-09-03T20:06:08.854Z,11.00
2022-09-03T20:08:57.632Z,11.00
2022-09-03T20:11:25.452Z,9.50
2022-09-03T20:14:14.820Z,9.00
2022-09-03T20:16:47.131Z,9.50
2022-09-03T20:19:18.959Z,9.50
2022-09-03T20:21:49.792Z,8.25
2022-09-03T20:24:29.311Z,10.00
2022-09-03T20:27:01.466Z,9.25
2022-09-03T20:29:36.291Z,8.25
2022-09-03T20:32:05.883Z,9.00
2022-09-03T20:34:37.949Z,7.50
2022-09-03T20:37:12.518Z,9.00
2022-09-03T20:39:52.948Z,8.50
2022-09-03T20:42:41.783Z,10.75
2022-09-03T20:45:12.348Z,11.00
2022-09-03T20:48:03.242Z,11.00
2022-09-03T20:50:43.116Z,12.00
2022-09-03T20:53:35.314Z,12.50
2022-09-03T20:56:07.505Z,13.00
2022-09-03T20:58:36.344Z,12.25
2022-09-03T21:01:05.137Z,9.25
2022-09-03T21:03:35.565Z,12.75
2022-09-03T21:06:12.731Z,10.75
2022-09-03T21:08:49.749Z,10.25
2022-09-03T21:11:20.740Z,10.25
2022-09-03T21:13:50.951Z,10.25
2022-09-03T21:16:25.006Z,11.50
2022-09-03T21:18:58.390Z,11.00
2022-09-03T21:21:36.036Z,11.25
2022-09-03T21:24:05.158Z,10.25
2022-09-03T21:26:35.016Z,9.75
2022-09-03T21:29:04.503Z,10.50
2022-09-03T21:31:38.430Z,9.00
2022-09-03T21:34:09.604Z,8.50
2022-09-03T21:36:37.109Z,9.00
2022-09-03T21:39:07.882Z,9.00
2022-09-03T21:41:38.036Z,9.00
2022-09-03T21:44:07.967Z,8.25
2022-09-03T21:46:36.816Z,8.50
2022-09-03T21:49:06.675Z,9.00
2022-09-03T21:51:36.189Z,8.75
2022-09-03T21:54:06.424Z,8.50
2022-09-03T21:56:52.363Z,7.25
2022-09-03T21:59:27.757Z,8.00
2022-09-03T22:02:00.439Z,8.00
2022-09-03T22:04:27.921Z,8.50
2022-09-03T22:07:00.595Z,9.00
2022-09-03T22:09:29.938Z,8.00
2022-09-03T22:12:00.324Z,7.75
2022-09-03T22:14:28.032Z,7.00
2022-09-03T22:16:58.057Z,8.00
2022-09-03T22:19:25.519Z,9.00
2022-09-03T22:21:59.609Z,6.50
2022-09-03T22:24:34.207Z,9.00
2022-09-03T22:27:05.028Z,8.50
2022-09-03T22:29:36.607Z,8.25
2022-09-03T22:32:08.256Z,7.50
2022-09-03T22:35:03.698Z,8.00
2022-09-03T22:37:39.911Z,6.25
2022-09-03T22:40:14.899Z,7.00
2022-09-03T22:42:51.255Z,7.00
2022-09-03T22:45:28.301Z,7.75
2022-09-03T22:48:04.491Z,7.50
2022-09-03T22:50:32.494Z,6.00
2022-09-03T22:53:08.029Z,6.00
2022-09-03T22:55:35.650Z,7.00
2022-09-03T22:58:07.380Z,6.75
2022-09-03T23:00:46.668Z,6.25
2022-09-03T23:03:16.791Z,5.00
2022-09-03T23:05:46.283Z,6.00
2022-09-03T23:08:15.337Z,5.75
2022-09-03T23:10:54.960Z,5.00
2022-09-03T23:13:25.176Z,6.00
2022-09-03T23:16:00.344Z,7.00
2022-09-03T23:18:28.387Z,6.50
2022-09-03T23:20:59.244Z,7.00
2022-09-03T23:23:29.675Z,5.00
2022-09-03T23:25:59.667Z,5.33
2022-09-03T23:28:30.104Z,5.33
2022-09-03T23:31:05.246Z,6.00
2022-09-03T23:33:32.687Z,6.00
2022-09-03T23:36:02.704Z,5.33
2022-09-03T23:38:33.284Z,6.00
2022-09-03T23:41:00.826Z,5.00
2022-09-03T23:43:48.887Z,6.00
2022-09-03T23:46:19.200Z,5.00
2022-09-03T23:48:58.430Z,5.67
2022-09-03T23:51:29.096Z,5.00
2022-09-03T23:54:02.936Z,5.00
2022-09-03T23:56:40.079Z,5.00
2022-09-03T23:59:13.654Z,0.00
